Time;durP1;ratioP1;P1;durP2;ratioP2;P2;SDS_P1;SDS_P2;PMS_P1;PMS_P2;Temp;Humidity;BMP_temperature;BMP_pressure;BME280_temperature;BME280_humidity;BME280_pressure;Samples;Min_cycle;Max_cycle;Signal;HPM_P1;HPM_P2
2022/11/15 00:04:19;;;;;;;42.50;22.30;;;;;;;3.05;92.48;98890.12;420197;1301;110625;-40
2022/11/15 00:14:26;;;;;;;47.30;23.20;;;;;;;2.97;92.81;98881.80;420187;1308;107614;-39
2022/11/15 00:24:34;;;;;;;36.00;20.00;;;;;;;2.95;92.75;98873.27;420153;1307;97989;-40
2022/11/15 00:34:41;;;;;;;34.50;18.20;;;;;;;2.81;92.81;98861.55;420228;1301;107257;-39
2022/11/15 00:44:48;;;;;;;29.10;17.60;;;;;;;2.65;92.76;98848.90;420117;1298;97880;-41
2022/11/15 00:54:56;;;;;;;33.50;19.40;;;;;;;2.56;92.91;98834.99;420125;1294;110813;-40
2022/11/15 01:05:03;;;;;;;32.50;18.30;;;;;;;2.43;93.16;98817.04;420018;1309;108621;-39
2022/11/15 01:15:11;;;;;;;36.10;19.00;;;;;;;2.31;93.43;98802.87;420141;1300;97960;-40
2022/11/15 01:25:17;;;;;;;34.40;19.30;;;;;;;2.26;93.57;98793.55;420075;1293;106706;-40
2022/11/15 01:35:24;;;;;;;30.50;17.60;;;;;;;2.22;93.66;98786.22;420153;1302;97813;-40
2022/11/15 01:45:31;;;;;;;30.70;17.80;;;;;;;2.19;93.90;98771.95;420029;1301;110787;-39
2022/11/15 01:55:39;;;;;;;39.50;20.40;;;;;;;2.20;93.97;98770.86;420246;1301;109364;-39
2022/11/15 02:05:45;;;;;;;37.10;20.20;;;;;;;2.15;94.01;98752.15;421215;1271;97890;-40
2022/11/15 02:15:50;;;;;;;40.30;23.70;;;;;;;2.15;94.22;98737.41;420956;1299;106682;-40
2022/11/15 02:25:58;;;;;;;46.10;23.90;;;;;;;2.22;94.52;98722.68;421035;1292;96681;-40
2022/11/15 02:36:11;;;;;;;41.90;24.20;;;;;;;2.18;94.58;98700.31;420850;1299;108824;-40
2022/11/15 02:56:31;;;;;;;44.10;23.60;;;;;;;2.09;95.32;98685.69;420757;1298;97937;-40
2022/11/15 03:06:42;;;;;;;42.20;23.30;;;;;;;2.05;95.14;98673.82;420944;1291;107134;-39
2022/11/15 03:37:02;;;;;;;36.30;21.50;;;;;;;1.99;95.22;98649.01;420715;1291;107949;-40
2022/11/15 03:47:10;;;;;;;38.20;21.30;;;;;;;2.00;95.01;98641.95;420879;1298;97863;-39
2022/11/15 03:57:17;;;;;;;34.40;21.40;;;;;;;2.01;95.13;98633.63;420726;1299;109824;-41
2022/11/15 04:07:24;;;;;;;40.50;22.90;;;;;;;2.01;95.00;98625.45;420778;1292;98052;-40
2022/11/15 04:17:33;;;;;;;53.40;27.20;;;;;;;1.99;94.88;98623.38;420774;1298;110586;-40
2022/11/15 04:27:40;;;;;;;50.80;28.60;;;;;;;1.99;94.88;98617.61;420924;1291;108210;-38
2022/11/15 04:37:48;;;;;;;48.60;27.60;;;;;;;1.98;95.05;98608.95;421111;1299;96715;-40
2022/11/15 04:47:55;;;;;;;37.70;24.50;;;;;;;1.99;95.06;98605.84;421052;1298;108768;-40
2022/11/15 04:58:03;;;;;;;45.90;26.80;;;;;;;1.99;94.98;98599.02;420891;1299;97921;-40
2022/11/15 05:08:10;;;;;;;39.70;24.90;;;;;;;1.99;95.07;98590.23;420975;1290;110943;-40
2022/11/15 05:18:18;;;;;;;43.00;26.10;;;;;;;1.96;95.12;98578.55;420971;1298;107647;-40
2022/11/15 05:28:30;;;;;;;47.10;28.30;;;;;;;1.89;95.08;98576.58;420914;1299;97779;-40
2022/11/15 05:48:44;;;;;;;43.00;26.20;;;;;;;1.84;95.04;98575.73;421158;1291;97520;-39
2022/11/15 05:58:52;;;;;;;49.20;30.60;;;;;;;1.93;95.30;98579.27;421681;1299;109829;-40
2022/11/15 06:09:05;;;;;;;52.20;28.50;;;;;;;2.05;95.24;98578.14;421441;1299;107579;-38
2022/11/15 06:19:12;;;;;;;43.80;27.30;;;;;;;2.14;95.24;98576.47;421331;1298;97876;-40
2022/11/15 06:29:19;;;;;;;49.40;29.40;;;;;;;2.31;95.38;98583.14;421007;1291;108593;-39
2022/11/15 06:39:27;;;;;;;47.10;26.70;;;;;;;2.48;95.31;98582.36;420966;1299;97014;-39
2022/11/15 06:49:34;;;;;;;39.80;25.00;;;;;;;2.63;95.29;98577.67;421909;1298;110545;-40
2022/11/15 06:59:41;;;;;;;49.00;26.40;;;;;;;2.90;95.28;98588.27;420835;1298;107129;-41
2022/11/15 07:09:48;;;;;;;47.60;28.10;;;;;;;3.36;95.45;98590.59;420928;1289;97473;-40
2022/11/15 07:19:55;;;;;;;52.80;31.40;;;;;;;4.15;95.87;98578.76;420742;1289;107672;-40
2022/11/15 07:30:04;;;;;;;53.80;32.00;;;;;;;5.67;96.07;98570.77;420750;1306;97794;-39
2022/11/15 07:40:13;;;;;;;51.00;31.60;;;;;;;6.75;94.87;98561.83;420858;1299;109139;-40
2022/11/15 07:50:20;;;;;;;59.20;37.10;;;;;;;7.54;94.21;98556.23;420818;1290;108036;-40
2022/11/15 08:00:27;;;;;;;70.60;41.00;;;;;;;7.89;93.25;98554.59;421017;1292;96616;-40
2022/11/15 08:10:35;;;;;;;63.30;38.10;;;;;;;8.38;92.98;98544.37;421202;1291;107600;-40
2022/11/15 08:20:46;;;;;;;68.60;38.40;;;;;;;8.93;92.14;98525.45;420883;1288;97873;-40
2022/11/15 08:30:54;;;;;;;54.90;33.90;;;;;;;8.83;91.52;98525.27;421078;1297;110716;-40
2022/11/15 08:41:04;;;;;;;55.40;35.80;;;;;;;8.71;91.06;98525.46;421082;1295;107152;-41
2022/11/15 08:51:11;;;;;;;57.90;35.50;;;;;;;8.86;90.71;98532.02;421076;1299;98702;-40
2022/11/15 09:11:23;;;;;;;49.70;27.70;;;;;;;9.71;90.68;98521.71;420980;1298;97901;-40
2022/11/15 09:21:31;;;;;;;35.30;24.10;;;;;;;10.23;90.68;98515.35;420981;1291;110233;-41
2022/11/15 09:31:38;;;;;;;32.40;19.40;;;;;;;10.77;90.23;98503.63;420870;1299;107940;-41
2022/11/15 09:41:56;;;;;;;29.30;19.70;;;;;;;11.04;89.55;98508.29;421007;1299;97838;-41
2022/11/15 09:52:04;;;;;;;26.50;17.10;;;;;;;11.40;89.18;98496.35;420745;1295;108312;-41
2022/11/15 10:02:17;;;;;;;30.40;19.30;;;;;;;11.68;88.31;98485.13;420762;1291;97484;-41
2022/11/15 10:12:26;;;;;;;32.90;21.10;;;;;;;11.75;87.44;98465.59;421072;1289;110456;-40
2022/11/15 10:22:40;;;;;;;30.20;21.00;;;;;;;11.82;87.16;98444.63;420835;1294;109010;-40
2022/11/15 10:43:01;;;;;;;27.00;20.00;;;;;;;12.00;86.57;98413.02;421096;1289;107862;-41
2022/11/15 10:53:18;;;;;;;34.90;20.20;;;;;;;12.27;86.10;98401.45;421059;1296;97880;-41
2022/11/15 11:03:29;;;;;;;51.20;26.80;;;;;;;12.23;85.13;98393.70;421377;1289;110454;-41
2022/11/15 11:13:39;;;;;;;39.70;24.40;;;;;;;12.16;84.78;98395.52;421130;1290;360843;-41
2022/11/15 11:33:51;;;;;;;31.40;21.20;;;;;;;12.43;84.48;98384.14;420790;1298;108135;-41
2022/11/15 11:43:59;;;;;;;29.60;20.20;;;;;;;12.58;84.11;98375.37;420734;1292;97176;-39
2022/11/15 11:54:09;;;;;;;;;;;;;;;12.56;83.59;98357.98;420946;1295;110396;-40
2022/11/15 12:04:19;;;;;;;30.30;21.70;;;;;;;12.49;83.40;98342.83;420839;1291;107240;-41
2022/11/15 12:14:27;;;;;;;34.60;19.40;;;;;;;12.54;83.13;98332.52;420750;1291;97920;-40
2022/11/15 12:24:33;;;;;;;32.10;21.90;;;;;;;12.72;82.86;98321.48;420919;1299;107859;-41
2022/11/15 12:34:41;;;;;;;37.10;25.00;;;;;;;12.66;82.38;98317.50;420793;1292;97755;-40
2022/11/15 12:45:25;;;;;;;40.50;26.70;;;;;;;12.53;82.13;98312.77;420639;1292;109355;-41
2022/11/15 12:55:30;;;;;;;40.70;27.10;;;;;;;12.38;82.13;98301.27;420752;1287;107177;-41
2022/11/15 13:06:00;;;;;;;41.30;25.40;;;;;;;12.34;82.14;98286.27;420792;1292;98008;-40
2022/11/15 13:16:04;;;;;;;43.10;26.60;;;;;;;12.35;82.01;98279.02;420961;1295;109113;-39
2022/11/15 13:26:13;;;;;;;44.80;29.10;;;;;;;12.31;82.01;98276.27;420852;1292;108222;-40
2022/11/15 13:36:23;;;;;;;45.60;28.30;;;;;;;12.16;81.98;98271.16;420930;1299;97896;-42
2022/11/15 13:46:32;;;;;;;51.00;30.60;;;;;;;11.95;81.89;98269.05;420910;1287;108753;-40
2022/11/15 13:56:41;;;;;;;45.20;29.70;;;;;;;11.72;81.85;98267.80;420860;1299;96671;-41
2022/11/15 14:06:45;;;;;;;;;;;;;;;11.61;81.89;98260.30;420794;1295;108659;-41
2022/11/15 14:16:50;;;;;;;50.70;30.50;;;;;;;11.50;81.99;98249.65;420825;1296;107986;-41
2022/11/15 14:26:57;;;;;;;58.20;33.10;;;;;;;11.38;82.05;98240.39;420811;1299;97877;-44
2022/11/15 14:37:04;;;;;;;61.50;35.60;;;;;;;11.14;82.14;98225.92;420858;1292;110643;-40
2022/11/15 14:47:11;;;;;;;72.30;38.40;;;;;;;10.80;82.16;98223.14;420785;1299;107685;-41
2022/11/15 14:57:18;;;;;;;68.70;40.70;;;;;;;10.48;82.08;98210.35;420792;1299;96871;-40
2022/11/15 15:07:25;;;;;;;76.70;43.50;;;;;;;10.24;82.13;98198.92;420918;1299;112154;-41
2022/11/15 15:17:32;;;;;;;67.60;38.90;;;;;;;10.06;82.31;98184.20;421042;1299;107746;-41
2022/11/15 15:27:40;;;;;;;76.00;45.60;;;;;;;9.94;82.47;98171.01;420911;1299;97871;-42
2022/11/15 15:37:49;;;;;;;77.10;41.20;;;;;;;9.84;82.71;98154.03;420612;1298;109179;-41
2022/11/15 15:47:56;;;;;;;86.50;48.90;;;;;;;9.73;82.76;98156.31;420708;1299;97871;-39
2022/11/15 15:58:03;;;;;;;89.50;50.10;;;;;;;9.73;83.05;98158.31;420972;1299;110158;-41
2022/11/15 16:08:13;;;;;;;104.80;60.70;;;;;;;9.71;83.19;98161.06;420867;1292;108067;-40
2022/11/15 16:18:21;;;;;;;103.20;58.80;;;;;;;9.60;83.35;98154.09;421011;1292;97866;-40
2022/11/15 16:28:30;;;;;;;91.00;51.00;;;;;;;9.52;83.42;98158.13;420874;1299;110234;-41
2022/11/15 16:38:38;;;;;;;86.50;52.30;;;;;;;9.52;83.52;98159.91;420974;1299;107648;-41
2022/11/15 16:48:45;;;;;;;;;;;;;;;9.56;83.62;98150.08;420851;1300;98030;-41
2022/11/15 16:58:53;;;;;;;120.00;63.70;;;;;;;9.53;83.69;98147.06;420805;1293;107223;-44
2022/11/15 17:09:00;;;;;;;136.30;76.50;;;;;;;9.45;83.70;98137.17;420787;1295;97494;-40
2022/11/15 17:19:11;;;;;;;128.80;70.40;;;;;;;9.38;83.92;98126.31;420984;1292;110623;-40
2022/11/15 17:29:19;;;;;;;121.10;70.00;;;;;;;9.33;83.87;98126.96;420908;1295;108667;-41
2022/11/15 17:39:26;;;;;;;126.60;67.10;;;;;;;9.29;83.99;98125.10;420911;1305;97899;-41
2022/11/15 17:59:41;;;;;;;105.10;59.10;;;;;;;9.27;84.16;98108.74;420859;1301;106741;-41
2022/11/15 18:09:47;;;;;;;126.20;68.00;;;;;;;9.22;84.17;98109.07;421008;1292;97922;-41
2022/11/15 18:19:54;;;;;;;133.50;72.70;;;;;;;9.12;84.25;98096.52;420914;1298;108328;-41
2022/11/15 18:30:01;;;;;;;117.70;67.30;;;;;;;8.94;84.21;98087.06;420799;1300;97972;-42
2022/11/15 18:40:10;;;;;;;117.80;66.50;;;;;;;8.87;84.38;98088.32;420695;1301;108396;-41
2022/11/15 18:50:18;;;;;;;124.00;66.00;;;;;;;8.90;84.57;98079.87;420590;1299;108004;-41
2022/11/15 19:00:25;;;;;;;116.30;66.10;;;;;;;8.66;84.28;98072.20;420617;1293;97345;-42
2022/11/15 19:10:34;;;;;;;177.30;92.30;;;;;;;8.61;84.66;98062.56;420654;1299;107959;-41
2022/11/15 19:20:40;;;;;;;157.50;88.40;;;;;;;8.54;84.68;98059.25;420960;1295;97867;-40
2022/11/15 19:30:47;;;;;;;198.10;104.20;;;;;;;8.49;84.82;98052.80;420918;1295;111469;-40
2022/11/15 19:40:58;;;;;;;217.70;108.50;;;;;;;8.49;84.94;98046.67;420929;1293;108495;-40
2022/11/15 19:51:11;;;;;;;240.00;112.50;;;;;;;8.62;85.17;98038.68;420764;1305;97876;-40
2022/11/15 20:01:18;;;;;;;255.60;122.10;;;;;;;8.72;85.43;98035.36;420704;1292;108569;-41
2022/11/15 20:11:26;;;;;;;261.50;126.50;;;;;;;8.58;85.18;98034.61;420702;1292;97866;-43
2022/11/15 20:21:33;;;;;;;258.10;116.90;;;;;;;8.45;85.23;98027.25;420771;1299;109281;-40
2022/11/15 20:31:40;;;;;;;213.80;103.10;;;;;;;8.32;85.15;98021.36;420701;1296;108680;-41
2022/11/15 20:41:47;;;;;;;195.80;103.50;;;;;;;8.22;85.34;98012.23;420664;1299;97882;-41
2022/11/15 20:51:53;;;;;;;168.10;96.30;;;;;;;8.20;85.47;98008.34;420891;1305;108547;-40
2022/11/15 21:02:01;;;;;;;171.00;92.10;;;;;;;8.16;85.54;97995.77;420801;1299;97502;-39
2022/11/15 21:12:11;;;;;;;183.10;92.40;;;;;;;8.16;85.67;97985.40;420730;1299;109015;-40
2022/11/15 21:22:18;;;;;;;172.60;92.10;;;;;;;8.18;85.70;97981.96;420696;1296;107420;-40
2022/11/15 21:32:27;;;;;;;172.00;93.90;;;;;;;8.09;85.61;97968.23;420632;1299;97507;-40
2022/11/15 21:42:35;;;;;;;187.70;97.20;;;;;;;7.97;85.76;97954.58;420665;1289;107632;-40
2022/11/15 21:52:42;;;;;;;183.50;97.60;;;;;;;7.99;86.15;97960.89;420646;1299;97873;-41
2022/11/15 22:02:49;;;;;;;182.40;93.60;;;;;;;8.07;86.15;97950.38;420692;1299;110792;-41
2022/11/15 22:12:56;;;;;;;179.30;93.70;;;;;;;8.08;85.98;97935.40;420800;1305;108872;-41
2022/11/15 22:23:02;;;;;;;174.30;93.20;;;;;;;7.95;86.17;97918.73;420939;1296;96673;-42
2022/11/15 22:33:09;;;;;;;165.70;90.60;;;;;;;7.96;86.29;97916.07;420910;1298;108546;-40
2022/11/15 22:43:19;;;;;;;184.30;92.70;;;;;;;7.97;86.27;97906.71;420754;1299;97869;-39
2022/11/15 22:53:26;;;;;;;161.70;85.80;;;;;;;7.83;86.15;97890.20;420844;1298;110444;-40
2022/11/15 23:03:34;;;;;;;163.50;84.20;;;;;;;7.77;86.35;97883.77;420922;1298;107576;-41
2022/11/15 23:13:42;;;;;;;157.90;86.90;;;;;;;7.79;86.54;97876.94;420382;1295;424826;-40
2022/11/15 23:23:49;;;;;;;160.80;84.10;;;;;;;7.79;86.63;97873.06;420861;1296;108123;-42
2022/11/15 23:33:59;;;;;;;155.00;82.70;;;;;;;7.67;86.41;97862.91;420712;1295;97898;-40
2022/11/15 23:44:04;;;;;;;154.30;81.10;;;;;;;7.71;86.70;97853.40;420540;1292;109766;-40
2022/11/15 23:54:11;;;;;;;155.30;81.80;;;;;;;7.75;86.80;97849.65;420556;1292;107339;-41
